Track Макаров Николай

Time Latitude Longitude Accuracy (66% radius in meters) Altitude (meters) Speed (km/hour) Bearing (degrees) Battery (%) GPS flag
10:25:46 60.371030 29.556401 16 76.565627121807 0 259.8108215332 83 1 delete
10:25:34 60.371030 29.556401 32 76.489883737852 0 259.8108215332 83 1 delete
10:25:23 60.370981 29.556423 24 76.503544418998 0 259.8108215332 83 1 delete
10:25:20 60.370981 29.556423 12 76.526110024275 0 259.8108215332 83 1 delete
11:25:14 60.370892 29.556301 32 76.904948913791 0.67024916410446 259.8108215332 83 0 delete
10:24:59 60.370892 29.556301 32 76.6753922407 0 259.8108215332 83 1 delete
10:24:47 60.370892 29.556301 24 76.872754677557 0 259.8108215332 83 1 delete
10:24:38 60.370892 29.556301 32 76.904948913791 0.67024916410446 259.8108215332 83 1 delete
10:24:26 60.370913 29.556409 32 76.978731137258 0 259.8108215332 83 1 delete
10:24:14 60.370913 29.556409 16 76.987665462456 0 259.8108215332 83 1 delete
10:24:05 60.370913 29.556409 24 77.04528371606 0 259.8108215332 83 1 delete
10:23:53 60.370913 29.556409 32 77.234315532819 0 259.8108215332 83 1 delete
10:23:41 60.370913 29.556409 8 77.529326185883 0 259.8108215332 83 1 delete
10:23:38 60.370913 29.556409 8 77.578975848947 0 259.8108215332 83 1 delete
10:23:29 60.370919 29.556504 12 77.82510107706 0 286.60528564453 83 1 delete
10:23:17 60.370919 29.556504 4 78.803623390993 0 286.60528564453 83 1 delete
10:23:08 60.370919 29.556504 8 78.938496494547 0 286.60528564453 83 1 delete
10:23:05 60.370915 29.556531 8 78.972170676714 1.3046816587448 290.54653930664 83 1 delete
10:23:02 60.370886 29.556608 8 79.11534237286 1.8264230489731 304.79385375977 83 1 delete
10:22:56 60.370842 29.556671 6 79.376021668264 1.3798853158951 320.01086425781 83 1 delete
10:22:53 60.370787 29.556731 8 79.533207238615 1.264905333519 354.74310302734 83 1 delete
10:22:47 60.370741 29.556761 6 79.527706419967 1.0368641614914 331.9743347168 83 1 delete
10:22:35 60.370693 29.556826 12 79.878672702601 0 296.48220825195 83 1 delete
10:22:26 60.370691 29.556842 6 80.134512700165 3.5131568908691 300.37707519531 83 1 delete
10:22:23 60.370628 29.557061 6 80.359261012243 5.1591815948486 316.37078857422 83 1 delete
10:22:20 60.370614 29.557239 8 82.40793142829 4.1024346351624 252.6044921875 83 1 delete
10:22:17 60.370769 29.557401 8 83.729030043694 6.6326208114624 179.69915771484 83 1 delete
10:22:14 60.370978 29.557220 8 85.331043265127 7.3253450393677 138.33959960938 83 1 delete
10:22:11 60.371147 29.556996 8 85.1635483195 5.5265889167786 166.67384338379 83 1 delete
10:22:08 60.371340 29.557025 8 85.192834640054 7.6465497016907 207.84997558594 83 1 delete
10:22:05 60.371531 29.557256 8 85.773237531644 5.8740220069885 213.54222106934 83 1 delete
10:22:02 60.371677 29.557525 8 86.034565578314 5.2185249328613 238.33160400391 83 1 delete
10:21:59 60.371766 29.557822 8 88.018575518237 5.0327882766724 241.70802307129 83 1 delete
10:21:56 60.371826 29.558093 8 88.558694443062 3.7397599220276 255.65007019043 83 1 delete
10:21:53 60.371847 29.558249 12 88.77553046429 1.0869858264923 252.66357421875 83 1 delete
10:21:50 60.371860 29.558347 8 89.08931909963 2.9802072048187 286.09515380859 83 1 delete
10:21:47 60.371882 29.558617 8 89.201690312443 6.0568413734436 251.3436126709 83 1 delete
10:21:44 60.371944 29.559022 6 90.942953143867 8.0816268920898 250.8796081543 83 1 delete
10:21:41 60.372032 29.559495 8 92.751177949421 7.8049783706665 248.58726501465 83 1 delete
10:21:38 60.372104 29.559992 6 94.366804080247 7.607994556427 249.40608215332 83 1 delete
10:21:35 60.372158 29.560433 6 96.609956525326 5.9064650535583 267.24014282227 83 1 delete
10:21:32 60.372103 29.560802 6 100.8584529514 8.683967590332 295.60998535156 83 1 delete
10:21:29 60.371960 29.561241 6 103.79957803413 6.5877327919006 297.2585144043 83 1 delete
10:21:26 60.371867 29.561473 6 104.26207765453 4.4158291816711 336.67590332031 83 1 delete
10:21:23 60.371730 29.561622 6 101.89725319964 5.1872415542603 331.81427001953 83 1 delete
10:21:20 60.371597 29.561886 6 101.05145448464 5.2397136688232 293.97320556641 83 1 delete
10:21:17 60.371535 29.562177 6 102.11866664777 5.1134123802185 273.7541809082 83 1 delete
10:21:14 60.371488 29.562506 6 106.11546174196 4.7713055610657 297.22326660156 83 1 delete
10:21:11 60.371398 29.562784 6 107.34898776725 4.717963218689 302.56820678711 83 1 delete
10:21:08 60.371310 29.563036 8 106.87982351902 4.4299392700195 301.60150146484 83 1 delete